• Join FlightAware (Why Join?)
  • Login
  • US Flag 
09:47AM EST


 

Airport Tracker/Info


-or-


 

Live Flight TrackerFlight Track Log ✈ DAL6034 ✈ 17-Apr-2013 ✈ KLGA - KMHT

Flight Track Log - Related Links

Times and Time Zones

All times are in EDT time to prevent confusion due to time zone crossing. See the DAL6034 flight status page for this flight to view local times or setup timezone preferences in your user account.

Time Position Orientation Groundspeed Altitude Reporting Facility
EDT Latitude Longitude Course Direction KTS MPH feet Rate Location/Type
03:47PM 40.8000 -73.8667 33° Northeast 157 181 1,100  Level New York TRACON
03:50PM 40.9192 -73.7586 34° Northeast 223 257 6,400 2,040 Climbing Boston Center
03:51PM 41.1159 -73.5958 28° Northeast  Level FlightAware Approximate
03:51PM 40.9783 -73.7019 36° Northeast 242 278 8,300  Level Boston Center
03:52PM 41.2016 -73.5236 33° Northeast  Level FlightAware Approximate
03:52PM 41.0500 -73.6319 36° Northeast 272 313 10,800  Level Boston Center
03:53PM 41.1192 -73.5836 28° Northeast 298 343 12,100 1,860 Climbing Boston Center
03:54PM 41.2072 -73.5189 29° Northeast 319 367 14,600 1,920 Climbing Boston Center
03:55PM 41.2828 -73.4622 29° Northeast 329 379 16,000 1,200 Climbing Boston Center
03:56PM 41.3753 -73.3917 30° Northeast 339 390 17,100 480 Climbing Boston Center
03:57PM 41.4694 -73.3239 28° Northeast 372 428 17,000 -120 Descending Boston Center
03:58PM 41.5472 -73.2306 42° Northeast 380 437 16,900 -60 Descending Boston Center
03:59PM 41.6250 -73.1233 46° Northeast 385 443 16,900  Level Boston Center
04:00PM 41.7153 -73.0519 31° Northeast 380 437 16,900  Level Boston Center
04:01PM 41.8008 -72.9942 27° Northeast 380 437 16,900  Level Boston Center
04:02PM 41.8950 -72.9281 28° Northeast 368 423 16,900  Level Boston Center
04:03PM 41.9869 -72.8619 28° Northeast 368 423 16,900 -480 Level Boston Center
04:04PM 42.0914 -72.7897 27° Northeast 376 433 16,000 -960 Descending Boston Center
04:05PM 42.1750 -72.7286 28° Northeast 371 427 15,100 -600 Descending Boston Center
04:06PM 42.2647 -72.6672 27° Northeast 371 427 14,900 -120 Descending Boston Center
04:07PM 42.3628 -72.5975 28° Northeast 366 421 14,900 -60 Level Boston Center
04:08PM 42.4544 -72.5331 27° Northeast 366 421 14,800 -780 Descending Boston Center
04:09PM 42.5608 -72.4597 27° Northeast 361 415 13,100 -840 Descending Boston Center
04:10PM 42.6608 -72.3864 28° Northeast 349 402 12,900 -300 Descending Boston Center
04:11PM 42.7483 -72.3269 27° Northeast 344 396 12,600 -840 Descending Boston Center
04:12PM 42.7983 -72.2250 56° Northeast 344 396 11,300 -1,380 Descending Boston Center
04:13PM 42.8103 -72.0864 83° East 316 364 9,900 -1,620 Descending Boston Center
04:14PM 42.8142 -71.9900 87° East 301 346 8,100 -1,620 Descending Boston Center
04:15PM 42.8053 -71.8769 96° East 281 323 6,800 -1,440 Descending Boston Center
04:16PM 42.7986 -71.7978 97° East 245 282 5,300 -1,320 Descending Boston Center
04:17PM 42.7878 -71.7075 99° East 220 253 4,200 -720 Descending Boston Center
04:18PM 42.7853 -71.6283 92° East 220 253 3,800 -600 Descending Boston Center
04:19PM 42.7906 -71.5319 86° East 213 245 3,000 -420 Descending Boston Center
04:20PM 42.8044 -71.4467 77° East 208 239 3,000 -240 Level Boston Center
04:21PM 42.8250 -71.3897 64° Northeast 188 216 2,600 -420 Descending Boston Center